Last 6 Hours

Alpine-Summit 8643' (Ward Mt.)

15 Minute Data | America/Los_Angeles
as of 10/27/20 8:06 PM PDT
Date & Time Temp (°F) RH (%) Dew Pt (°F) Wet Bulb (°F) Wind Dir (°) Wind Spd (mph) Wind Gust (mph) WindChill (°F)
10/27/20 - 2000 41.6 35 16.1 31.6 E | 83 61.9 77.4 26.6
10/27/20 - 1945 41.4 37 16.9 31.7 E | 82 57.5 66.8 26.8
10/27/20 - 1930 41.6 35 16.2 31.6 E | 83 60.2 69.1 27.3
10/27/20 - 1915 42.0 38 18.3 32.4 E | 82 59.8 71.4 27.6
10/27/20 - 1900 42.1 40 19.5 32.8 E | 80 58.5 74.6 28.3
10/27/20 - 1845 42.7 29 12.9 31.4 E | 81 59.6 73.5 28.7
10/27/20 - 1830 42.9 30 13.8 31.7 E | 81 58.3 71.7 29.4
10/27/20 - 1815 43.4 32 15.3 32.4 E | 79 55.6 68.8 30.4
10/27/20 - 1800 43.9 33 16.9 33.0 ENE | 78 50.9 60.7 31.5
10/27/20 - 1745 44.4 41 22.3 34.8 E | 81 49.3 58.2 32.9
10/27/20 - 1730 45.5 37 20.8 34.9 E | 82 51.0 59.5 34.8
10/27/20 - 1715 47.0 31 18.2 35.0 E | 80 50.3 59.4 35.9
10/27/20 - 1700 47.4 27 15.4 34.5 ENE | 78 51.2 60.7 36.5
10/27/20 - 1645 48.0 24 12.8 34.2 E | 82 53.6 66.1 36.9
10/27/20 - 1630 48.0 27 15.8 34.9 E | 81 49.9 58.7 37.1
10/27/20 - 1615 48.2 26 14.6 34.7 E | 84 52.5 62.6 36.7
10/27/20 - 1600 47.7 28 15.9 34.8 E | 85 52.7 61.5 36.7
10/27/20 - 1545 48.1 31 19.2 35.8 E | 85 53.4 61.0 36.3
10/27/20 - 1530 47.6 34 20.5 35.9 E | 84 54.0 61.6 35.8
10/27/20 - 1515 47.2 38 22.8 36.5 E | 82 50.4 59.4 35.8
10/27/20 - 1500 46.9 42 24.8 36.9 E | 83 51.4 59.8 35.2
10/27/20 - 1445 47.0 43 25.9 37.3 E | 81 49.8 59.7 35.2
10/27/20 - 1430 45.8 43 24.5 36.3 E | 84 56.6 66.4 33.1
10/27/20 - 1415 45.6 45 25.4 36.5 E | 86 60.3 71.7 32.8
Max 48.2 45 25.9 37.3 - 61.9 77.4 37.1
Avg 45.2 34 18.5 34.2 - 54.5 65.0 32.8
Min 41.4 24 12.8 31.4 - 49.3 58.2 26.6